| time (UTC) | temp C | wind direction | speed KPH | gust KPH | rain 1hr cm | rain 24hr cm | rain mn cm | humidity % | barometer mb |
| 20260906113503 | 20 | 35 | 1.6 | 0.0 | 0.00 | 0.00 | 0.00 | 97 | 1017.6 |
| 20260906113003 | 20 | 36 | 1.6 | 3.2 | 0.00 | 0.00 | 0.00 | 97 | 1017.6 |
| 20260906112503 | 20 | 33 | 1.6 | 6.4 | 0.00 | 0.00 | 0.00 | 96 | 1017.6 |
| 20260906112003 | 20 | 19 | 1.6 | 9.7 | 0.00 | 0.00 | 0.00 | 96 | 1017.2 |
| 20260906111503 | 20 | 30 | 0.0 | 3.2 | 0.00 | 0.00 | 0.00 | 96 | 1017.2 |
| 20260906111003 | 20 | 38 | 1.6 | 3.2 | 0.00 | 0.00 | 0.00 | 97 | 1017.2 |
| 20260906110503 | 20 | 28 | 1.6 | 4.8 | 0.00 | 0.00 | 0.00 | 97 | 1017.2 |
| 20260906110003 | 20 | 28 | 1.6 | 6.4 | 0.00 | 0.00 | 0.00 | 97 | 1016.9 |
| 20260906105503 | 20 | 44 | 1.6 | 4.8 | 0.00 | 0.00 | 0.00 | 97 | 1016.9 |
| 20260906105003 | 20 | 67 | 1.6 | 3.2 | 0.00 | 0.00 | 0.00 | 97 | 1016.6 |
| 20260906104503 | 20 | 14 | 0.0 | 9.7 | 0.00 | 0.00 | 0.00 | 100 | 1016.9 |
| 20260906104003 | 20 | 3 | 0.0 | 4.8 | 0.00 | 0.00 | 0.00 | 100 | 1016.6 |
| 20260906103003 | 20 | 29 | 1.6 | 6.4 | 0.00 | 0.00 | 0.00 | 100 | 1016.6 |
| 20260906102524 | 20 | 19 | 0.0 | 1.6 | 0.00 | 0.00 | 0.00 | 100 | 1016.6 |
| 20260906102003 | 20 | 3 | 3.2 | 11.3 | 0.00 | 0.00 | 0.00 | 100 | 1016.9 |
| 20260906101503 | 21 | 37 | 1.6 | 1.6 | 0.00 | 0.00 | 0.00 | 100 | 1016.9 |
| 20260906101003 | 21 | 59 | 1.6 | 6.4 | 0.00 | 0.00 | 0.00 | 100 | 1016.6 |
| 20260906100503 | 21 | 44 | 1.6 | 6.4 | 0.00 | 0.00 | 0.00 | 100 | 1016.6 |
| 20260906100003 | 21 | 59 | 3.2 | 6.4 | 0.00 | 0.00 | 0.00 | 100 | 1016.9 |
| 20260906095503 | 21 | 47 | 1.6 | 3.2 | 0.00 | 0.00 | 0.00 | 100 | 1016.6 |
| 20260906095003 | 21 | 14 | 1.6 | 3.2 | 0.00 | 0.00 | 0.00 | 100 | 1016.6 |
| 20260906094524 | 21 | 29 | 3.2 | 6.4 | 0.00 | 0.00 | 0.00 | 100 | 1016.6 |
| 20260906094024 | 21 | 9 | 1.6 | 9.7 | 0.00 | 0.00 | 0.00 | 100 | 1016.6 |
| 20260906093524 | 21 | 16 | 3.2 | 11.3 | 0.00 | 0.00 | 0.00 | 100 | 1016.6 |
| 20260906093003 | 21 | 14 | 1.6 | 9.7 | 0.00 | 0.00 | 0.00 | 100 | 1016.6 |
| 20260906092503 | 21 | 16 | 3.2 | 9.7 | 0.00 | 0.00 | 0.00 | 100 | 1016.6 |
| 20260906092024 | 21 | 11 | 3.2 | 11.3 | 0.00 | 0.00 | 0.00 | 100 | 1016.6 |
| 20260906091503 | 21 | 7 | 3.2 | 9.7 | 0.00 | 0.00 | 0.00 | 100 | 1016.6 |
| 20260906091003 | 21 | 15 | 6.4 | 9.7 | 0.00 | 0.00 | 0.00 | 100 | 1016.6 |
| 20260906090524 | 21 | 12 | 6.4 | 12.9 | 0.00 | 0.00 | 0.00 | 100 | 1016.6 |
| 20260906090003 | 21 | 8 | 4.8 | 6.4 | 0.00 | 0.00 | 0.00 | 100 | 1016.6 |
| 20260906085503 | 21 | 15 | 6.4 | 12.9 | 0.00 | 0.00 | 0.00 | 100 | 1016.6 |
| 20260906085024 | 21 | 3 | 8.0 | 12.9 | 0.00 | 0.00 | 0.00 | 100 | 1016.6 |
| 20260906084503 | 21 | 19 | 3.2 | 11.3 | 0.00 | 0.00 | 0.00 | 100 | 1016.6 |
| 20260906084003 | 21 | 9 | 8.0 | 16.1 | 0.00 | 0.00 | 0.00 | 100 | 1016.6 |
| 20260906083503 | 21 | 17 | 4.8 | 9.7 | 0.00 | 0.00 | 0.00 | 100 | 1016.6 |
| 20260906083003 | 21 | 24 | 3.2 | 9.7 | 0.00 | 0.00 | 0.00 | 100 | 1016.6 |
| 20260906082524 | 21 | 15 | 3.2 | 4.8 | 0.00 | 0.00 | 0.00 | 100 | 1016.6 |
| 20260906082003 | 21 | 14 | 3.2 | 9.7 | 0.00 | 0.00 | 0.00 | 100 | 1016.6 |
| 20260906081503 | 21 | 10 | 4.8 | 6.4 | 0.00 | 0.00 | 0.00 | 100 | 1016.6 |
| 20260906081003 | 21 | 6 | 3.2 | 12.9 | 0.00 | 0.00 | 0.00 | 100 | 1016.2 |
| 20260906080503 | 21 | 20 | 3.2 | 4.8 | 0.00 | 0.00 | 0.00 | 100 | 1016.2 |
| 20260906075503 | 21 | 31 | 3.2 | 3.2 | 0.00 | 0.00 | 0.00 | 97 | 1016.2 |
| 20260906075003 | 21 | 10 | 4.8 | 9.7 | 0.00 | 0.00 | 0.00 | 97 | 1016.2 |
| 20260906074503 | 21 | 44 | 3.2 | 9.7 | 0.00 | 0.00 | 0.00 | 97 | 1015.9 |
| 20260906074003 | 21 | 18 | 3.2 | 6.4 | 0.00 | 0.00 | 0.00 | 97 | 1016.2 |
| 20260906073503 | 21 | 9 | 3.2 | 6.4 | 0.00 | 0.00 | 0.00 | 97 | 1016.6 |
| 20260906073024 | 21 | 2 | 4.8 | 16.1 | 0.00 | 0.00 | 0.00 | 97 | 1016.2 |
| 20260906072503 | 21 | 13 | 3.2 | 4.8 | 0.00 | 0.00 | 0.00 | 97 | 1016.2 |
| 20260906072003 | 21 | 17 | 4.8 | 9.7 | 0.00 | 0.00 | 0.00 | 97 | 1016.2 |
| 20260906071503 | 21 | 14 | 6.4 | 16.1 | 0.00 | 0.00 | 0.00 | 97 | 1016.6 |
| 20260906071003 | 21 | 10 | 3.2 | 12.9 | 0.00 | 0.00 | 0.00 | 97 | 1016.6 |
| 20260906070524 | 21 | 6 | 3.2 | 4.8 | 0.00 | 0.00 | 0.00 | 97 | 1016.6 |
| 20260906070003 | 21 | 18 | 4.8 | 9.7 | 0.00 | 0.00 | 0.00 | 97 | 1016.6 |
| 20260906065503 | 21 | 12 | 6.4 | 9.7 | 0.00 | 0.00 | 0.00 | 97 | 1016.6 |
| 20260906065003 | 21 | 14 | 3.2 | 9.7 | 0.00 | 0.00 | 0.00 | 96 | 1016.6 |
| 20260906064503 | 21 | 16 | 6.4 | 14.5 | 0.00 | 0.00 | 0.00 | 97 | 1016.6 |
| 20260906064003 | 21 | 18 | 6.4 | 14.5 | 0.00 | 0.00 | 0.00 | 97 | 1016.9 |
| 20260906063524 | 21 | 3 | 4.8 | 9.7 | 0.00 | 0.00 | 0.00 | 97 | 1016.6 |
| 20260906063003 | 21 | 13 | 6.4 | 16.1 | 0.00 | 0.00 | 0.00 | 97 | 1016.6 |
| 20260906062503 | 21 | 8 | 4.8 | 6.4 | 0.00 | 0.00 | 0.00 | 97 | 1016.9 |
| 20260906062024 | 21 | 12 | 8.0 | 11.3 | 0.00 | 0.00 | 0.00 | 97 | 1016.6 |
| 20260906061503 | 21 | 22 | 6.4 | 14.5 | 0.00 | 0.00 | 0.00 | 97 | 1016.6 |
| 20260906061003 | 21 | 8 | 4.8 | 11.3 | 0.00 | 0.00 | 0.00 | 97 | 1016.6 |
| 20260906060503 | 21 | 15 | 6.4 | 11.3 | 0.00 | 0.00 | 0.00 | 97 | 1016.6 |
| 20260906060003 | 21 | 24 | 4.8 | 14.5 | 0.00 | 0.00 | 0.00 | 97 | 1016.6 |
| 20260906055503 | 21 | 14 | 3.2 | 9.7 | 0.00 | 0.00 | 0.00 | 97 | 1016.6 |
| 20260906055003 | 21 | 22 | 3.2 | 4.8 | 0.00 | 0.00 | 0.00 | 97 | 1016.6 |
| 20260906054503 | 21 | 17 | 4.8 | 9.7 | 0.00 | 0.00 | 0.00 | 97 | 1016.6 |
| 20260906054003 | 21 | 17 | 3.2 | 4.8 | 0.00 | 0.00 | 0.00 | 97 | 1016.2 |
| 20260906053524 | 21 | 8 | 4.8 | 11.3 | 0.00 | 0.00 | 0.00 | 97 | 1016.2 |
| 20260906053003 | 21 | 14 | 6.4 | 16.1 | 0.00 | 0.00 | 0.00 | 97 | 1016.6 |
| 20260906052503 | 21 | 10 | 1.6 | 3.2 | 0.00 | 0.00 | 0.00 | 97 | 1016.2 |
| 20260906052003 | 21 | 14 | 3.2 | 6.4 | 0.00 | 0.00 | 0.00 | 97 | 1016.2 |
| 20260906051503 | 21 | 6 | 3.2 | 14.5 | 0.00 | 0.00 | 0.00 | 97 | 1016.2 |
| 20260906051024 | 21 | 12 | 4.8 | 6.4 | 0.00 | 0.00 | 0.00 | 97 | 1016.2 |
| 20260906050503 | 21 | 22 | 3.2 | 6.4 | 0.00 | 0.00 | 0.00 | 97 | 1016.2 |
| 20260906050003 | 21 | 27 | 1.6 | 4.8 | 0.00 | 0.00 | 0.00 | 97 | 1016.2 |
| 20260906045503 | 21 | 12 | 6.4 | 9.7 | 0.00 | 0.00 | 0.00 | 97 | 1016.2 |
| 20260906045003 | 21 | 25 | 1.6 | 6.4 | 0.00 | 0.00 | 0.00 | 97 | 1016.2 |
| 20260906044503 | 21 | 30 | 3.2 | 3.2 | 0.00 | 0.00 | 0.00 | 96 | 1016.2 |
| 20260906043503 | 21 | 32 | 3.2 | 4.8 | 0.00 | 0.00 | 0.00 | 96 | 1015.9 |
| 20260906043003 | 21 | 17 | 4.8 | 12.9 | 0.00 | 0.00 | 0.00 | 96 | 1015.9 |
| 20260906042503 | 21 | 14 | 3.2 | 4.8 | 0.00 | 0.00 | 0.00 | 96 | 1016.2 |
| 20260906042003 | 21 | 15 | 3.2 | 9.7 | 0.00 | 0.00 | 0.00 | 95 | 1016.2 |
| 20260906041503 | 21 | 29 | 3.2 | 6.4 | 0.00 | 0.00 | 0.00 | 95 | 1016.2 |
| 20260906041003 | 21 | 1 | 3.2 | 11.3 | 0.00 | 0.00 | 0.00 | 95 | 1016.2 |
| 20260906040503 | 21 | 19 | 4.8 | 9.7 | 0.00 | 0.00 | 0.00 | 95 | 1016.2 |
| 20260906040003 | 21 | 24 | 3.2 | 14.5 | 0.00 | 0.00 | 0.00 | 95 | 1015.9 |
| 20260906035503 | 21 | 26 | 4.8 | 9.7 | 0.00 | 0.00 | 0.00 | 95 | 1016.2 |
| 20260906035003 | 22 | 18 | 3.2 | 9.7 | 0.00 | 0.00 | 0.00 | 94 | 1016.2 |
| 20260906034503 | 22 | 29 | 4.8 | 14.5 | 0.00 | 0.00 | 0.00 | 94 | 1016.2 |
| 20260906034003 | 22 | 24 | 3.2 | 12.9 | 0.00 | 0.00 | 0.00 | 94 | 1016.2 |
| 20260906033503 | 22 | 12 | 4.8 | 6.4 | 0.00 | 0.00 | 0.00 | 94 | 1016.2 |
| 20260906033024 | 22 | 19 | 3.2 | 6.4 | 0.00 | 0.00 | 0.00 | 94 | 1016.2 |
| 20260906031503 | 22 | 27 | 4.8 | 9.7 | 0.00 | 0.00 | 0.00 | 93 | 1015.9 |
| 20260906031003 | 22 | 16 | 3.2 | 9.7 | 0.00 | 0.00 | 0.00 | 93 | 1015.9 |
| 20260906030503 | 22 | 8 | 3.2 | 11.3 | 0.00 | 0.00 | 0.00 | 92 | 1015.5 |
| 20260906030003 | 22 | 28 | 1.6 | 9.7 | 0.00 | 0.00 | 0.00 | 92 | 1015.5 |
| 20260906025503 | 22 | 18 | 4.8 | 11.3 | 0.00 | 0.00 | 0.00 | 91 | 1015.5 |
| 20260906025003 | 22 | 20 | 6.4 | 16.1 | 0.00 | 0.00 | 0.00 | 91 | 1015.5 |
| 20260906024524 | 23 | 26 | 3.2 | 6.4 | 0.00 | 0.00 | 0.00 | 91 | 1015.9 |
| 20260906024003 | 23 | 32 | 3.2 | 9.7 | 0.00 | 0.00 | 0.00 | 91 | 1015.5 |
| 20260906023503 | 23 | 24 | 4.8 | 17.7 | 0.00 | 0.00 | 0.00 | 90 | 1015.9 |
| 20260906023003 | 23 | 27 | 3.2 | 9.7 | 0.00 | 0.00 | 0.00 | 90 | 1015.5 |
| 20260906022503 | 23 | 23 | 4.8 | 12.9 | 0.00 | 0.00 | 0.00 | 90 | 1015.5 |
| 20260906022003 | 23 | 27 | 3.2 | 12.9 | 0.00 | 0.00 | 0.00 | 90 | 1015.5 |
| 20260906021503 | 23 | 28 | 4.8 | 11.3 | 0.00 | 0.00 | 0.00 | 89 | 1015.5 |
| 20260906021003 | 23 | 20 | 1.6 | 4.8 | 0.00 | 0.00 | 0.00 | 89 | 1015.5 |
| 20260906020503 | 24 | 18 | 6.4 | 9.7 | 0.00 | 0.00 | 0.00 | 89 | 1015.5 |
| 20260906020003 | 24 | 21 | 6.4 | 11.3 | 0.00 | 0.00 | 0.00 | 88 | 1015.2 |
| 20260906015503 | 24 | 20 | 4.8 | 9.7 | 0.00 | 0.00 | 0.00 | 88 | 1015.2 |
| 20260906015003 | 24 | 19 | 4.8 | 11.3 | 0.00 | 0.00 | 0.00 | 88 | 1015.2 |
| 20260906014503 | 25 | 5 | 9.7 | 12.9 | 0.00 | 0.00 | 0.00 | 87 | 1015.2 |
| 20260906014003 | 25 | 17 | 8.0 | 14.5 | 0.00 | 0.00 | 0.00 | 86 | 1015.2 |
| 20260906013524 | 25 | 11 | 8.0 | 17.7 | 0.00 | 0.00 | 0.00 | 86 | 1014.8 |
| 20260906013003 | 25 | 358 | 11.3 | 24.1 | 0.00 | 0.00 | 0.00 | 85 | 1014.8 |
| 20260906012524 | 25 | 10 | 11.3 | 16.1 | 0.00 | 0.00 | 0.00 | 85 | 1014.8 |
| 20260906012003 | 26 | 10 | 12.9 | 27.4 | 0.00 | 0.00 | 0.00 | 84 | 1014.8 |
| 20260906011503 | 26 | 358 | 9.7 | 20.9 | 0.00 | 0.00 | 0.00 | 83 | 1014.8 |
| 20260906011003 | 26 | 19 | 4.8 | 9.7 | 0.00 | 0.00 | 0.00 | 82 | 1014.8 |
| 20260906010524 | 26 | 8 | 6.4 | 14.5 | 0.00 | 0.00 | 0.00 | 81 | 1014.5 |
| 20260906010003 | 26 | 22 | 6.4 | 11.3 | 0.00 | 0.00 | 0.00 | 81 | 1014.5 |
| 20260906005503 | 26 | 6 | 8.0 | 16.1 | 0.00 | 0.00 | 0.00 | 81 | 1014.5 |
| 20260906005003 | 26 | 15 | 8.0 | 20.9 | 0.00 | 0.00 | 0.00 | 82 | 1014.5 |
| 20260906004503 | 26 | 16 | 6.4 | 14.5 | 0.00 | 0.00 | 0.00 | 82 | 1014.1 |
| 20260906004003 | 27 | 21 | 4.8 | 11.3 | 0.00 | 0.00 | 0.00 | 82 | 1014.1 |
| 20260906003503 | 27 | 14 | 6.4 | 14.5 | 0.00 | 0.00 | 0.00 | 82 | 1014.1 |
| 20260906003003 | 27 | 8 | 8.0 | 14.5 | 0.00 | 0.00 | 0.00 | 82 | 1014.5 |
| 20260906002503 | 27 | 13 | 9.7 | 16.1 | 0.00 | 0.00 | 0.00 | 81 | 1014.5 |
| 20260906002003 | 27 | 7 | 9.7 | 16.1 | 0.00 | 0.00 | 0.00 | 80 | 1014.1 |
| 20260906001503 | 27 | 6 | 11.3 | 17.7 | 0.00 | 0.00 | 0.00 | 80 | 1014.1 |
| 20260906001003 | 28 | 9 | 9.7 | 14.5 | 0.00 | 0.00 | 0.00 | 80 | 1014.1 |
| 20260906000503 | 28 | 15 | 8.0 | 16.1 | 0.00 | 0.00 | 0.00 | 80 | 1014.1 |
| 20260906000003 | 28 | 25 | 9.7 | 16.1 | 0.00 | 0.00 | 0.00 | 79 | 1013.8 |
| 20260905235503 | 28 | 23 | 6.4 | 14.5 | 0.00 | 0.00 | 0.00 | 79 | 1013.8 |
| 20260905235003 | 29 | 6 | 8.0 | 24.1 | 0.00 | 0.00 | 0.00 | 78 | 1014.1 |
| 20260905234503 | 29 | 12 | 9.7 | 16.1 | 0.00 | 0.00 | 0.00 | 77 | 1013.8 |
| 20260905234003 | 30 | 4 | 9.7 | 16.1 | 0.00 | 0.00 | 0.00 | 76 | 1013.8 |
| 20260905233503 | 30 | 18 | 8.0 | 9.7 | 0.00 | 0.00 | 0.00 | 75 | 1013.8 |
| 20260905233003 | 31 | 6 | 9.7 | 17.7 | 0.00 | 0.00 | 0.00 | 73 | 1013.8 |
| 20260905232503 | 31 | 8 | 11.3 | 20.9 | 0.00 | 0.00 | 0.00 | 72 | 1013.8 |
| 20260905232003 | 31 | 356 | 11.3 | 11.3 | 0.00 | 0.00 | 0.00 | 73 | 1013.8 |
| 20260905231503 | 31 | 349 | 8.0 | 12.9 | 0.00 | 0.00 | 0.00 | 72 | 1013.8 |
| 20260905231024 | 31 | 355 | 12.9 | 17.7 | 0.00 | 0.00 | 0.00 | 72 | 1013.8 |
| 20260905230503 | 31 | 351 | 14.5 | 20.9 | 0.00 | 0.00 | 0.00 | 71 | 1013.4 |
| 20260905230024 | 31 | 3 | 12.9 | 12.9 | 0.00 | 0.00 | 0.00 | 71 | 1013.4 |
| 20260905225503 | 31 | 356 | 12.9 | 24.1 | 0.00 | 0.00 | 0.00 | 70 | 1013.4 |
| 20260905225024 | 31 | 349 | 14.5 | 17.7 | 0.00 | 0.00 | 0.00 | 70 | 1013.4 |
| 20260905224503 | 31 | 343 | 8.0 | 17.7 | 0.00 | 0.00 | 0.00 | 70 | 1013.4 |
| 20260905224003 | 31 | 2 | 14.5 | 25.7 | 0.00 | 0.00 | 0.00 | 70 | 1013.4 |
| 20260905223503 | 31 | 359 | 12.9 | 22.5 | 0.00 | 0.00 | 0.00 | 70 | 1013.4 |
| 20260905223003 | 31 | 345 | 14.5 | 22.5 | 0.00 | 0.00 | 0.00 | 69 | 1013.1 |
| 20260905222503 | 32 | 351 | 14.5 | 25.7 | 0.00 | 0.00 | 0.00 | 70 | 1013.4 |
| 20260905222024 | 32 | 355 | 9.7 | 14.5 | 0.00 | 0.00 | 0.00 | 71 | 1013.4 |
| 20260905221503 | 32 | 352 | 12.9 | 25.7 | 0.00 | 0.00 | 0.00 | 70 | 1013.4 |
| 20260905221003 | 32 | 359 | 12.9 | 20.9 | 0.00 | 0.00 | 0.00 | 69 | 1013.4 |
| 20260905220524 | 32 | 352 | 12.9 | 16.1 | 0.00 | 0.00 | 0.00 | 69 | 1013.4 |
| 20260905220003 | 32 | 336 | 11.3 | 22.5 | 0.00 | 0.00 | 0.00 | 70 | 1013.1 |
| 20260905215524 | 32 | 350 | 11.3 | 16.1 | 0.00 | 0.00 | 0.00 | 69 | 1013.4 |
| 20260905215003 | 32 | 360 | 14.5 | 20.9 | 0.00 | 0.00 | 0.00 | 69 | 1013.1 |
| 20260905214503 | 32 | 349 | 11.3 | 14.5 | 0.00 | 0.00 | 0.00 | 70 | 1013.4 |
| 20260905214003 | 32 | 357 | 8.0 | 12.9 | 0.00 | 0.00 | 0.00 | 70 | 1013.1 |
| 20260905213503 | 32 | 349 | 12.9 | 24.1 | 0.00 | 0.00 | 0.00 | 71 | 1013.1 |
| 20260905213003 | 32 | 357 | 12.9 | 20.9 | 0.00 | 0.00 | 0.00 | 70 | 1013.1 |
| 20260905212503 | 32 | 347 | 12.9 | 20.9 | 0.00 | 0.00 | 0.00 | 68 | 1013.1 |
| 20260905212003 | 32 | 343 | 12.9 | 16.1 | 0.00 | 0.00 | 0.00 | 69 | 1013.1 |
| 20260905211503 | 33 | 17 | 12.9 | 22.5 | 0.00 | 0.00 | 0.00 | 68 | 1013.1 |
| 20260905211003 | 33 | 357 | 9.7 | 14.5 | 0.00 | 0.00 | 0.00 | 69 | 1013.1 |
| 20260905210503 | 33 | 353 | 11.3 | 22.5 | 0.00 | 0.00 | 0.00 | 68 | 1013.1 |
| 20260905210024 | 32 | 1 | 9.7 | 14.5 | 0.00 | 0.00 | 0.00 | 71 | 1013.4 |
| 20260905205503 | 32 | 342 | 9.7 | 14.5 | 0.00 | 0.00 | 0.00 | 72 | 1013.1 |
| 20260905205003 | 32 | 355 | 11.3 | 14.5 | 0.00 | 0.00 | 0.00 | 70 | 1013.4 |
| 20260905204503 | 32 | 354 | 11.3 | 16.1 | 0.00 | 0.00 | 0.00 | 69 | 1013.4 |
| 20260905204003 | 32 | 341 | 9.7 | 11.3 | 0.00 | 0.00 | 0.00 | 71 | 1013.4 |
| 20260905203503 | 32 | 353 | 12.9 | 16.1 | 0.00 | 0.00 | 0.00 | 71 | 1013.4 |
| 20260905203003 | 32 | 342 | 14.5 | 24.1 | 0.00 | 0.00 | 0.00 | 70 | 1013.4 |
| 20260905202503 | 32 | 337 | 11.3 | 22.5 | 0.00 | 0.00 | 0.00 | 71 | 1013.4 |
| 20260905202024 | 32 | 311 | 3.2 | 12.9 | 0.00 | 0.00 | 0.00 | 68 | 1013.4 |
| 20260905201503 | 32 | 331 | 8.0 | 16.1 | 0.00 | 0.00 | 0.00 | 69 | 1013.4 |
| 20260905201024 | 33 | 349 | 8.0 | 16.1 | 0.00 | 0.00 | 0.00 | 67 | 1013.4 |
| 20260905200503 | 33 | 329 | 6.4 | 14.5 | 0.00 | 0.00 | 0.00 | 66 | 1013.4 |
| 20260905200003 | 33 | 336 | 11.3 | 20.9 | 0.00 | 0.00 | 0.00 | 66 | 1013.8 |
| 20260905195503 | 33 | 351 | 14.5 | 25.7 | 0.00 | 0.00 | 0.00 | 64 | 1013.4 |
| 20260905195003 | 33 | 331 | 11.3 | 22.5 | 0.00 | 0.00 | 0.00 | 64 | 1013.4 |
| 20260905194503 | 33 | 336 | 8.0 | 11.3 | 0.00 | 0.00 | 0.00 | 67 | 1013.4 |
| 20260905194024 | 33 | 341 | 9.7 | 16.1 | 0.00 | 0.00 | 0.00 | 70 | 1013.8 |
| 20260905193503 | 33 | 351 | 9.7 | 17.7 | 0.00 | 0.00 | 0.00 | 67 | 1013.8 |
| 20260905193003 | 33 | 344 | 12.9 | 22.5 | 0.00 | 0.00 | 0.00 | 66 | 1013.8 |
| 20260905192503 | 33 | 300 | 3.2 | 6.4 | 0.00 | 0.00 | 0.00 | 66 | 1013.8 |
| 20260905192024 | 33 | 317 | 6.4 | 14.5 | 0.00 | 0.00 | 0.00 | 64 | 1013.8 |
| 20260905191503 | 33 | 334 | 11.3 | 20.9 | 0.00 | 0.00 | 0.00 | 65 | 1014.1 |
| 20260905191003 | 33 | 335 | 8.0 | 14.5 | 0.00 | 0.00 | 0.00 | 68 | 1014.1 |
| 20260905190503 | 32 | 334 | 8.0 | 11.3 | 0.00 | 0.00 | 0.00 | 69 | 1014.1 |
| 20260905190003 | 32 | 323 | 4.8 | 9.7 | 0.00 | 0.00 | 0.00 | 69 | 1014.1 |
| 20260905185524 | 33 | 334 | 11.3 | 11.3 | 0.00 | 0.00 | 0.00 | 65 | 1014.1 |
| 20260905185024 | 33 | 322 | 6.4 | 11.3 | 0.00 | 0.00 | 0.00 | 64 | 1014.1 |
| 20260905184503 | 33 | 320 | 4.8 | 11.3 | 0.00 | 0.00 | 0.00 | 68 | 1014.1 |
| 20260905184024 | 33 | 333 | 8.0 | 12.9 | 0.00 | 0.00 | 0.00 | 66 | 1014.1 |
| 20260905183503 | 32 | 360 | 8.0 | 17.7 | 0.00 | 0.00 | 0.00 | 68 | 1014.1 |
| 20260905183003 | 32 | 351 | 9.7 | 12.9 | 0.00 | 0.00 | 0.00 | 68 | 1014.5 |
| 20260905182503 | 33 | 348 | 11.3 | 17.7 | 0.00 | 0.00 | 0.00 | 65 | 1014.1 |
| 20260905182003 | 32 | 339 | 8.0 | 17.7 | 0.00 | 0.00 | 0.00 | 69 | 1014.1 |
| 20260905181503 | 32 | 358 | 11.3 | 17.7 | 0.00 | 0.00 | 0.00 | 68 | 1014.5 |
| 20260905181003 | 32 | 338 | 11.3 | 14.5 | 0.00 | 0.00 | 0.00 | 67 | 1014.5 |
| 20260905180503 | 33 | 325 | 1.6 | 6.4 | 0.00 | 0.00 | 0.00 | 66 | 1014.5 |
| 20260905180003 | 33 | 323 | 8.0 | 16.1 | 0.00 | 0.00 | 0.00 | 66 | 1014.5 |
| 20260905175503 | 33 | 320 | 9.7 | 14.5 | 0.00 | 0.00 | 0.00 | 66 | 1014.5 |
| 20260905175003 | 33 | 349 | 9.7 | 12.9 | 0.00 | 0.00 | 0.00 | 65 | 1014.5 |
| 20260905174524 | 33 | 318 | 8.0 | 11.3 | 0.00 | 0.00 | 0.00 | 66 | 1014.5 |
| 20260905174003 | 33 | 318 | 3.2 | 4.8 | 0.00 | 0.00 | 0.00 | 62 | 1014.5 |
| 20260905173503 | 33 | 311 | 4.8 | 9.7 | 0.00 | 0.00 | 0.00 | 66 | 1014.5 |
| 20260905173003 | 32 | 320 | 6.4 | 14.5 | 0.00 | 0.00 | 0.00 | 64 | 1014.5 |
| 20260905172503 | 32 | 326 | 3.2 | 11.3 | 0.00 | 0.00 | 0.00 | 66 | 1014.5 |
| 20260905172003 | 33 | 321 | 4.8 | 14.5 | 0.00 | 0.00 | 0.00 | 64 | 1014.5 |
| 20260905171524 | 33 | 314 | 6.4 | 16.1 | 0.00 | 0.00 | 0.00 | 65 | 1014.8 |
| 20260905171003 | 32 | 326 | 4.8 | 11.3 | 0.00 | 0.00 | 0.00 | 66 | 1014.8 |
| 20260905170524 | 32 | 333 | 6.4 | 12.9 | 0.00 | 0.00 | 0.00 | 67 | 1014.8 |
| 20260905170003 | 32 | 344 | 9.7 | 12.9 | 0.00 | 0.00 | 0.00 | 68 | 1014.8 |
| 20260905165503 | 32 | 325 | 6.4 | 11.3 | 0.00 | 0.00 | 0.00 | 69 | 1014.8 |
| 20260905165024 | 32 | 325 | 8.0 | 14.5 | 0.00 | 0.00 | 0.00 | 67 | 1014.8 |
| 20260905164503 | 32 | 299 | 3.2 | 12.9 | 0.00 | 0.00 | 0.00 | 67 | 1014.8 |
| 20260905164024 | 33 | 315 | 6.4 | 14.5 | 0.00 | 0.00 | 0.00 | 66 | 1014.8 |
| 20260905163503 | 32 | 291 | 4.8 | 11.3 | 0.00 | 0.00 | 0.00 | 70 | 1014.8 |
| 20260905163003 | 32 | 324 | 6.4 | 4.8 | 0.00 | 0.00 | 0.00 | 67 | 1014.8 |
| 20260905162503 | 32 | 265 | 3.2 | 6.4 | 0.00 | 0.00 | 0.00 | 70 | 1014.8 |
| 20260905162003 | 32 | 269 | 3.2 | 9.7 | 0.00 | 0.00 | 0.00 | 73 | 1014.8 |
| 20260905161503 | 32 | 272 | 3.2 | 3.2 | 0.00 | 0.00 | 0.00 | 70 | 1014.8 |
| 20260905161003 | 32 | 260 | 4.8 | 9.7 | 0.00 | 0.00 | 0.00 | 68 | 1014.8 |
| 20260905160503 | 32 | 265 | 4.8 | 6.4 | 0.00 | 0.00 | 0.00 | 69 | 1014.8 |
| 20260905160003 | 32 | 263 | 4.8 | 3.2 | 0.00 | 0.00 | 0.00 | 67 | 1014.8 |
| 20260905155503 | 32 | 278 | 4.8 | 11.3 | 0.00 | 0.00 | 0.00 | 67 | 1014.8 |
| 20260905155003 | 32 | 310 | 3.2 | 11.3 | 0.00 | 0.00 | 0.00 | 65 | 1014.8 |
| 20260905154503 | 32 | 318 | 4.8 | 9.7 | 0.00 | 0.00 | 0.00 | 67 | 1014.8 |
| 20260905154003 | 32 | 321 | 4.8 | 16.1 | 0.00 | 0.00 | 0.00 | 69 | 1014.8 |
| 20260905153503 | 32 | 278 | 0.0 | 1.6 | 0.00 | 0.00 | 0.00 | 72 | 1014.8 |
| 20260905153024 | 31 | 263 | 3.2 | 9.7 | 0.00 | 0.00 | 0.00 | 70 | 1014.8 |
| 20260905152524 | 31 | 268 | 8.0 | 9.7 | 0.00 | 0.00 | 0.00 | 72 | 1014.8 |
| 20260905152003 | 31 | 269 | 1.6 | 6.4 | 0.00 | 0.00 | 0.00 | 73 | 1014.8 |
| 20260905151503 | 31 | 264 | 3.2 | 9.7 | 0.00 | 0.00 | 0.00 | 72 | 1014.8 |
| 20260905150503 | 31 | 260 | 3.2 | 4.8 | 0.00 | 0.00 | 0.00 | 73 | 1014.8 |
| 20260905150003 | 31 | 262 | 3.2 | 6.4 | 0.00 | 0.00 | 0.00 | 73 | 1014.5 |
| 20260905145503 | 30 | 269 | 3.2 | 9.7 | 0.00 | 0.00 | 0.00 | 72 | 1014.5 |
| 20260905145003 | 30 | 271 | 3.2 | 11.3 | 0.00 | 0.00 | 0.00 | 73 | 1014.8 |
| 20260905144524 | 30 | 278 | 4.8 | 6.4 | 0.00 | 0.00 | 0.00 | 75 | 1014.5 |
| 20260905144003 | 30 | 269 | 3.2 | 4.8 | 0.00 | 0.00 | 0.00 | 76 | 1014.5 |
| 20260905143503 | 30 | 262 | 3.2 | 6.4 | 0.00 | 0.00 | 0.00 | 76 | 1014.5 |
| 20260905143003 | 30 | 269 | 3.2 | 6.4 | 0.00 | 0.00 | 0.00 | 78 | 1014.8 |
| 20260905142524 | 30 | 258 | 1.6 | 3.2 | 0.00 | 0.00 | 0.00 | 80 | 1014.8 |
| 20260905142003 | 29 | 265 | 1.6 | 6.4 | 0.00 | 0.00 | 0.00 | 81 | 1014.8 |
| 20260905141503 | 28 | 258 | 1.6 | 1.6 | 0.00 | 0.00 | 0.00 | 82 | 1014.8 |
| 20260905141003 | 28 | 270 | 1.6 | 4.8 | 0.00 | 0.00 | 0.00 | 83 | 1014.8 |
| 20260905140524 | 28 | 282 | 0.0 | 0.0 | 0.00 | 0.00 | 0.00 | 82 | 1014.8 |
| 20260905140004 | 28 | 250 | 1.6 | 3.2 | 0.00 | 0.00 | 0.00 | 83 | 1014.8 |
| 20260905135503 | 28 | 268 | 4.8 | 6.4 | 0.00 | 0.00 | 0.00 | 84 | 1014.8 |
| 20260905135003 | 27 | 269 | 3.2 | 9.7 | 0.00 | 0.00 | 0.00 | 85 | 1014.8 |
| 20260905134503 | 27 | 253 | 9.7 | 11.3 | 0.00 | 0.00 | 0.00 | 85 | 1014.5 |
| 20260905134024 | 27 | 257 | 8.0 | 9.7 | 0.00 | 0.00 | 0.00 | 85 | 1014.8 |
| 20260905133503 | 27 | 256 | 6.4 | 11.3 | 0.00 | 0.00 | 0.00 | 87 | 1014.8 |
| 20260905133003 | 27 | 257 | 6.4 | 11.3 | 0.00 | 0.00 | 0.00 | 89 | 1014.8 |
| 20260905132503 | 27 | 254 | 3.2 | 6.4 | 0.00 | 0.00 | 0.00 | 92 | 1014.8 |
| 20260905132024 | 26 | 255 | 3.2 | 6.4 | 0.00 | 0.00 | 0.00 | 92 | 1014.8 |
| 20260905131503 | 26 | 247 | 1.6 | 3.2 | 0.00 | 0.00 | 0.00 | 92 | 1014.8 |
| 20260905131003 | 26 | 237 | 3.2 | 3.2 | 0.00 | 0.00 | 0.00 | 94 | 1014.8 |
| 20260905130503 | 26 | 245 | 3.2 | 3.2 | 0.00 | 0.00 | 0.00 | 95 | 1014.8 |
| 20260905130003 | 25 | 244 | 1.6 | 3.2 | 0.00 | 0.00 | 0.00 | 95 | 1014.8 |
| 20260905125503 | 25 | 229 | 1.6 | 3.2 | 0.00 | 0.00 | 0.00 | 96 | 1014.8 |
| 20260905125003 | 25 | 229 | 1.6 | 1.6 | 0.00 | 0.00 | 0.00 | 96 | 1014.5 |
| 20260905124503 | 25 | 232 | 0.0 | 1.6 | 0.00 | 0.00 | 0.00 | 96 | 1014.8 |
| 20260905124003 | 25 | 220 | 0.0 | 1.6 | 0.00 | 0.00 | 0.00 | 97 | 1014.8 |
| 20260905123503 | 25 | 0 | 0.0 | 0.0 | 0.00 | 0.00 | 0.00 | 97 | 1014.5 |
| 20260905123003 | 24 | 0 | 0.0 | 0.0 | 0.00 | 0.00 | 0.00 | 97 | 1014.5 |
| 20260905122503 | 24 | 0 | 0.0 | 0.0 | 0.00 | 0.00 | 0.00 | 97 | 1014.8 |
| 20260905122003 | 24 | 0 | 0.0 | 0.0 | 0.00 | 0.00 | 0.00 | 97 | 1014.5 |
| 20260905121524 | 24 | 0 | 0.0 | 0.0 | 0.00 | 0.00 | 0.00 | 100 | 1014.5 |
| 20260905121003 | 23 | 0 | 0.0 | 0.0 | 0.00 | 0.00 | 0.00 | 100 | 1014.5 |
| 20260905120503 | 23 | 0 | 0.0 | 0.0 | 0.00 | 0.00 | 0.00 | 100 | 1014.5 |
| 20260905120003 | 23 | 0 | 0.0 | 0.0 | 0.00 | 0.00 | 0.00 | 100 | 1014.5 |
| 20260905115524 | 23 | 0 | 0.0 | 0.0 | 0.00 | 0.00 | 0.00 | 100 | 1014.1 |
| 20260905115003 | 23 | 0 | 0.0 | 0.0 | 0.00 | 0.00 | 0.00 | 97 | 1014.5 |
| 20260905114503 | 23 | 0 | 0.0 | 0.0 | 0.00 | 0.00 | 0.00 | 97 | 1014.5 |
| 20260905114003 | 23 | 227 | 0.0 | 0.0 | 0.00 | 0.00 | 0.00 | 97 | 1014.5 |